createdAt,value
2018-06-10T00:01:44.652Z,11.73
2018-06-10T00:04:12.748Z,13.60
2018-06-10T00:06:40.839Z,12.50
2018-06-10T00:09:08.914Z,13.90
2018-06-10T00:11:37.006Z,12.90
2018-06-10T00:14:06.155Z,14.00
2018-06-10T00:16:34.289Z,13.17
2018-06-10T00:19:02.402Z,12.93
2018-06-10T00:21:30.499Z,13.67
2018-06-10T00:23:58.602Z,13.50
2018-06-10T00:26:26.782Z,14.80
2018-06-10T00:29:00.348Z,12.73
2018-06-10T00:31:28.455Z,14.43
2018-06-10T00:33:56.575Z,13.10
2018-06-10T00:36:24.672Z,13.30
2018-06-10T00:38:52.768Z,12.90
2018-06-10T00:41:20.859Z,14.67
2018-06-10T00:43:49.024Z,13.20
2018-06-10T00:46:17.188Z,13.10
2018-06-10T00:48:45.339Z,13.10
2018-06-10T00:51:13.479Z,14.80
2018-06-10T00:53:41.578Z,14.40
2018-06-10T00:56:21.459Z,13.50
2018-06-10T00:58:49.566Z,14.17
2018-06-10T01:01:17.702Z,12.67
2018-06-10T01:03:45.818Z,14.57
2018-06-10T01:06:13.921Z,13.53
2018-06-10T01:08:42.040Z,12.93
2018-06-10T01:11:10.146Z,14.20
2018-06-10T01:13:38.266Z,13.97
2018-06-10T01:16:06.360Z,13.53
2018-06-10T01:18:34.470Z,12.80
2018-06-10T01:21:02.573Z,12.53
2018-06-10T01:23:30.774Z,13.50
2018-06-10T01:25:58.896Z,13.70
2018-06-10T01:28:28.800Z,12.00
2018-06-10T01:30:58.240Z,12.20
2018-06-10T01:33:26.736Z,12.80
2018-06-10T01:35:54.827Z,12.80
2018-06-10T01:38:22.956Z,13.30
2018-06-10T01:40:51.043Z,14.20
2018-06-10T01:43:19.148Z,13.20
2018-06-10T01:45:47.253Z,13.03
2018-06-10T01:48:15.348Z,13.80
2018-06-10T01:50:43.449Z,13.37
2018-06-10T01:53:11.553Z,12.57
2018-06-10T01:55:39.673Z,13.10
2018-06-10T01:58:07.789Z,12.43
2018-06-10T02:00:35.907Z,13.73
2018-06-10T02:03:04.031Z,12.43
2018-06-10T02:05:32.148Z,12.70
2018-06-10T02:08:00.265Z,11.60
2018-06-10T02:10:28.356Z,12.17
2018-06-10T02:12:56.476Z,12.53
2018-06-10T02:15:24.572Z,11.13
2018-06-10T02:17:52.676Z,12.53
2018-06-10T02:20:20.784Z,11.57
2018-06-10T02:22:48.904Z,12.27
2018-06-10T02:25:17.010Z,12.10
2018-06-10T02:27:45.141Z,12.30
2018-06-10T02:30:13.252Z,12.83
2018-06-10T02:32:41.352Z,13.10
2018-06-10T02:35:09.493Z,11.80
2018-06-10T02:37:37.613Z,13.30
2018-06-10T02:40:05.732Z,12.47
2018-06-10T02:42:33.852Z,12.30
2018-06-10T02:45:01.947Z,13.13
2018-06-10T02:47:30.160Z,12.97
2018-06-10T02:49:58.285Z,13.80
2018-06-10T02:52:26.384Z,12.97
2018-06-10T02:54:54.488Z,12.87
2018-06-10T02:57:22.596Z,13.83
2018-06-10T02:59:51.299Z,13.00
2018-06-10T03:02:19.395Z,13.90
2018-06-10T03:04:47.601Z,13.37
2018-06-10T03:07:15.983Z,13.30
2018-06-10T03:09:44.138Z,12.70
2018-06-10T03:12:12.259Z,13.57
2018-06-10T03:14:40.371Z,13.97
2018-06-10T03:17:08.485Z,12.97
2018-06-10T03:19:36.596Z,12.63
2018-06-10T03:22:04.691Z,13.33
2018-06-10T03:24:32.804Z,14.20
2018-06-10T03:27:00.919Z,12.43
2018-06-10T03:29:29.028Z,13.70
2018-06-10T03:31:57.144Z,14.10
2018-06-10T03:34:25.249Z,14.87
2018-06-10T03:36:53.366Z,13.10
2018-06-10T03:39:21.490Z,13.47
2018-06-10T03:41:49.596Z,13.70
2018-06-10T03:44:17.738Z,13.80
2018-06-10T03:46:45.831Z,13.37
2018-06-10T03:49:13.958Z,14.93
2018-06-10T03:51:42.117Z,14.20
2018-06-10T03:54:10.255Z,15.03
2018-06-10T03:56:38.370Z,13.53
2018-06-10T03:59:06.537Z,12.53
2018-06-10T04:01:34.648Z,13.47
2018-06-10T04:04:02.757Z,14.47
2018-06-10T04:06:30.867Z,14.20
2018-06-10T04:08:58.976Z,14.27
2018-06-10T04:11:27.073Z,14.23
2018-06-10T04:13:55.190Z,13.57
2018-06-10T04:16:23.289Z,14.60
2018-06-10T04:18:51.448Z,15.00
2018-06-10T04:21:19.567Z,14.50
2018-06-10T04:23:47.671Z,14.47
2018-06-10T04:26:15.772Z,13.37
2018-06-10T04:28:43.884Z,13.90
2018-06-10T04:31:11.988Z,14.30
2018-06-10T04:33:40.075Z,15.17
2018-06-10T04:36:08.227Z,14.00
2018-06-10T04:38:36.320Z,13.67
2018-06-10T04:41:04.429Z,14.50
2018-06-10T04:43:32.540Z,15.10
2018-06-10T04:46:00.643Z,14.97
2018-06-10T04:48:28.784Z,15.10
2018-06-10T04:50:56.917Z,15.23
2018-06-10T04:53:25.045Z,14.10
2018-06-10T04:55:53.212Z,14.73
2018-06-10T05:00:56.066Z,12.50
2018-06-10T05:03:24.195Z,13.60
2018-06-10T05:05:52.345Z,11.40
2018-06-10T05:08:21.050Z,12.50
2018-06-10T05:10:49.206Z,12.83
2018-06-10T05:13:17.287Z,11.93
2018-06-10T05:15:45.410Z,11.73
2018-06-10T05:18:13.514Z,11.93
2018-06-10T05:20:41.627Z,12.60
2018-06-10T05:23:09.737Z,11.00
2018-06-10T05:25:37.832Z,12.27
2018-06-10T05:28:06.005Z,12.67
2018-06-10T05:30:34.133Z,11.53
2018-06-10T05:33:02.255Z,11.47
2018-06-10T05:35:30.349Z,11.67
2018-06-10T05:37:58.513Z,12.17
2018-06-10T05:40:26.629Z,12.20
2018-06-10T05:42:54.756Z,12.73
2018-06-10T05:45:22.873Z,12.03
2018-06-10T05:47:50.988Z,12.33
2018-06-10T05:50:19.091Z,12.90
2018-06-10T05:52:47.189Z,12.60
2018-06-10T05:55:15.897Z,13.50
2018-06-10T05:57:44.043Z,13.20
2018-06-10T06:00:12.164Z,13.83
2018-06-10T06:02:40.293Z,13.70
2018-06-10T06:05:08.421Z,14.53
2018-06-10T06:07:36.531Z,15.47
2018-06-10T06:10:04.677Z,15.13
2018-06-10T06:12:32.774Z,14.77
2018-06-10T06:15:01.006Z,15.70
2018-06-10T06:17:29.130Z,15.23
2018-06-10T06:19:57.252Z,17.20
2018-06-10T06:22:25.366Z,15.33
2018-06-10T06:24:53.467Z,17.13
2018-06-10T06:27:21.605Z,16.10
2018-06-10T06:29:49.663Z,14.30
2018-06-10T06:32:17.776Z,15.47
2018-06-10T06:34:45.892Z,18.50
2018-06-10T06:37:14.009Z,18.43
2018-06-10T06:39:42.128Z,17.70
2018-06-10T06:42:10.254Z,21.23
2018-06-10T06:44:38.372Z,20.50
2018-06-10T06:47:06.582Z,23.50
2018-06-10T06:49:34.621Z,21.67
2018-06-10T06:52:02.743Z,25.93
2018-06-10T06:54:30.836Z,21.87
2018-06-10T06:56:58.939Z,23.13
2018-06-10T06:59:27.042Z,23.93
2018-06-10T07:01:55.152Z,24.93
2018-06-10T07:04:23.263Z,23.67
2018-06-10T07:06:51.382Z,23.03
2018-06-10T07:09:19.503Z,22.70
2018-06-10T07:11:47.629Z,23.80
2018-06-10T07:14:15.779Z,21.70
2018-06-10T07:16:43.900Z,24.40
2018-06-10T07:19:11.996Z,24.93
2018-06-10T07:21:40.125Z,23.80
2018-06-10T07:24:08.239Z,23.27
2018-06-10T07:26:36.355Z,22.63
2018-06-10T07:29:04.475Z,24.00
2018-06-10T07:31:32.578Z,21.93
2018-06-10T07:34:00.667Z,22.50
2018-06-10T07:36:28.785Z,22.67
2018-06-10T07:38:56.888Z,25.30
2018-06-10T07:41:25.000Z,23.03
2018-06-10T07:43:53.122Z,22.60
2018-06-10T07:46:21.238Z,24.10
2018-06-10T07:48:49.372Z,23.70
2018-06-10T07:51:17.497Z,24.83
2018-06-10T07:53:45.604Z,26.00
2018-06-10T07:56:13.728Z,25.07
2018-06-10T07:58:41.824Z,24.67
2018-06-10T08:01:10.028Z,23.53
2018-06-10T08:03:38.132Z,24.90
2018-06-10T08:06:06.245Z,20.23
2018-06-10T08:08:34.348Z,16.90
2018-06-10T08:11:02.484Z,15.60
2018-06-10T08:13:30.606Z,19.27
2018-06-10T08:15:58.734Z,12.30
2018-06-10T08:18:26.832Z,13.27
2018-06-10T08:20:54.966Z,12.20
2018-06-10T08:23:23.074Z,11.73
2018-06-10T08:25:51.261Z,12.00
2018-06-10T08:28:19.376Z,11.90
2018-06-10T08:30:47.491Z,11.10
2018-06-10T08:33:15.641Z,9.70
2018-06-10T08:35:43.825Z,8.77
2018-06-10T08:38:11.925Z,11.03
2018-06-10T08:40:40.037Z,11.47
2018-06-10T08:43:08.164Z,12.40
2018-06-10T08:45:36.278Z,11.23
2018-06-10T08:48:04.376Z,9.33
2018-06-10T08:50:32.479Z,11.67
2018-06-10T08:53:00.624Z,12.40
2018-06-10T08:55:28.743Z,10.90
2018-06-10T08:57:56.860Z,13.30
2018-06-10T09:00:31.689Z,11.20
2018-06-10T09:02:59.823Z,10.33
2018-06-10T09:05:27.937Z,13.23
2018-06-10T09:07:56.036Z,11.83
2018-06-10T09:10:24.834Z,12.90
2018-06-10T09:12:53.145Z,15.70
2018-06-10T09:15:21.294Z,13.63
2018-06-10T09:17:49.490Z,15.40
2018-06-10T09:20:17.637Z,15.00
2018-06-10T09:22:45.816Z,13.93
2018-06-10T09:25:13.923Z,13.30
2018-06-10T09:27:42.070Z,13.67
2018-06-10T09:30:10.197Z,13.20
2018-06-10T09:32:38.302Z,13.43
2018-06-10T09:35:06.412Z,14.20
2018-06-10T09:37:34.549Z,13.53
2018-06-10T09:40:04.215Z,17.60
2018-06-10T09:42:32.931Z,13.90
2018-06-10T09:45:00.999Z,11.50
2018-06-10T09:47:29.134Z,12.90
2018-06-10T09:49:57.272Z,14.80
2018-06-10T09:52:25.322Z,13.00
2018-06-10T09:54:53.419Z,11.90
2018-06-10T09:57:21.551Z,11.30
2018-06-10T09:59:49.678Z,10.47
2018-06-10T10:02:17.807Z,9.37
2018-06-10T10:04:45.913Z,9.67
2018-06-10T10:07:14.060Z,9.70
2018-06-10T10:09:42.154Z,9.40
2018-06-10T10:12:10.253Z,8.70
2018-06-10T10:14:38.485Z,10.53
2018-06-10T10:17:06.493Z,10.60
2018-06-10T10:19:34.620Z,11.60
2018-06-10T10:22:02.796Z,10.70
2018-06-10T10:24:30.894Z,10.23
2018-06-10T10:26:59.011Z,9.87
2018-06-10T10:29:27.140Z,10.37
2018-06-10T10:31:55.264Z,11.83
2018-06-10T10:34:23.377Z,11.33
2018-06-10T10:36:51.489Z,10.57
2018-06-10T10:39:19.612Z,10.17
2018-06-10T10:41:47.707Z,8.97
2018-06-10T10:44:15.827Z,9.17
2018-06-10T10:46:44.055Z,8.60
2018-06-10T10:49:12.165Z,8.90
2018-06-10T10:51:40.266Z,9.47
2018-06-10T10:54:08.372Z,8.23
2018-06-10T10:56:36.469Z,10.73
2018-06-10T10:59:04.599Z,10.77
2018-06-10T11:01:32.686Z,9.13
2018-06-10T11:04:00.821Z,9.80
2018-06-10T11:06:28.915Z,10.10
2018-06-10T11:08:57.019Z,9.70
2018-06-10T11:11:25.132Z,9.33
2018-06-10T11:13:53.378Z,9.13
2018-06-10T11:16:21.504Z,9.90
2018-06-10T11:18:49.625Z,9.70
2018-06-10T11:21:17.753Z,8.87
2018-06-10T11:23:45.884Z,8.53
2018-06-10T11:26:13.983Z,9.53
2018-06-10T11:28:42.111Z,8.90
2018-06-10T11:31:10.228Z,9.17
2018-06-10T11:33:38.335Z,8.60
2018-06-10T11:36:06.434Z,8.67
2018-06-10T11:38:34.567Z,10.27
2018-06-10T11:41:02.664Z,9.33
2018-06-10T11:43:30.783Z,10.03
2018-06-10T11:45:58.913Z,9.97
2018-06-10T11:48:27.019Z,10.80
2018-06-10T11:50:55.145Z,12.60
2018-06-10T11:53:23.243Z,10.27
2018-06-10T11:55:51.389Z,10.77
2018-06-10T11:58:19.616Z,9.07
2018-06-10T12:00:47.779Z,9.80
2018-06-10T12:03:15.905Z,11.27
2018-06-10T12:05:44.062Z,10.77
2018-06-10T12:08:12.165Z,11.13
2018-06-10T12:10:40.301Z,11.93
2018-06-10T12:13:08.388Z,11.43
2018-06-10T12:15:36.536Z,9.77
2018-06-10T12:18:04.734Z,11.20
2018-06-10T12:20:32.839Z,11.07
2018-06-10T12:23:00.958Z,11.97
2018-06-10T12:25:48.451Z,12.80
2018-06-10T12:28:16.564Z,11.47
2018-06-10T12:30:44.681Z,10.87
2018-06-10T12:33:12.769Z,11.47
2018-06-10T12:35:40.948Z,9.70
2018-06-10T12:38:09.067Z,10.03
2018-06-10T12:40:37.180Z,9.83
2018-06-10T12:43:05.283Z,8.73
2018-06-10T12:45:33.395Z,9.90
2018-06-10T12:48:07.452Z,9.10
2018-06-10T12:50:35.568Z,9.33
2018-06-10T12:53:03.668Z,9.47
2018-06-10T12:55:31.797Z,8.93
2018-06-10T12:57:59.911Z,8.70
2018-06-10T13:00:28.045Z,9.57
2018-06-10T13:02:56.148Z,10.50
2018-06-10T13:05:24.249Z,9.33
2018-06-10T13:07:52.355Z,9.60
2018-06-10T13:10:20.538Z,10.67
2018-06-10T13:12:48.657Z,10.53
2018-06-10T13:15:16.800Z,9.77
2018-06-10T13:17:44.929Z,10.10
2018-06-10T13:20:13.066Z,9.50
2018-06-10T13:22:41.179Z,10.23
2018-06-10T13:25:09.347Z,9.80
2018-06-10T13:27:37.489Z,10.33
2018-06-10T13:30:05.616Z,9.47
2018-06-10T13:32:33.713Z,9.80
2018-06-10T13:35:01.820Z,9.90
2018-06-10T13:37:29.924Z,10.00
2018-06-10T13:39:58.020Z,9.73
2018-06-10T13:42:26.128Z,10.07
2018-06-10T13:44:54.251Z,8.93
2018-06-10T13:47:22.372Z,9.83
2018-06-10T13:49:50.474Z,9.00
2018-06-10T13:52:18.572Z,9.47
2018-06-10T13:54:46.698Z,10.33
2018-06-10T13:57:14.832Z,9.53
2018-06-10T13:59:43.007Z,9.17
2018-06-10T14:02:11.179Z,9.53
2018-06-10T14:04:39.347Z,10.70
2018-06-10T14:07:07.505Z,9.73
2018-06-10T14:09:35.617Z,8.10
2018-06-10T14:12:03.731Z,8.77
2018-06-10T14:14:31.843Z,8.53
2018-06-10T14:16:59.940Z,7.57
2018-06-10T14:19:28.039Z,8.67
2018-06-10T14:21:56.152Z,8.33
2018-06-10T14:24:24.357Z,8.50
2018-06-10T14:26:52.465Z,8.13
2018-06-10T14:29:20.580Z,8.00
2018-06-10T14:31:48.706Z,8.30
2018-06-10T14:34:16.796Z,7.43
2018-06-10T14:36:44.761Z,8.50
2018-06-10T14:39:12.863Z,8.37
2018-06-10T14:41:40.986Z,9.97
2018-06-10T14:44:09.090Z,7.80
2018-06-10T14:46:37.194Z,9.07
2018-06-10T14:49:05.380Z,8.07
2018-06-10T14:51:33.469Z,8.30
2018-06-10T14:54:01.573Z,7.47
2018-06-10T14:56:29.678Z,8.27
2018-06-10T14:58:57.789Z,9.87
2018-06-10T15:01:25.896Z,9.27
2018-06-10T15:03:53.999Z,7.73
2018-06-10T15:06:22.111Z,10.00
2018-06-10T15:08:50.223Z,9.60
2018-06-10T15:14:04.664Z,8.50
2018-06-10T15:16:32.780Z,8.93
2018-06-10T15:19:00.840Z,8.30
2018-06-10T15:21:28.947Z,7.97
2018-06-10T15:23:57.081Z,9.00
2018-06-10T15:26:25.192Z,7.97
2018-06-10T15:28:53.307Z,8.00
2018-06-10T15:31:21.415Z,8.33
2018-06-10T15:33:49.508Z,8.30
2018-06-10T15:36:17.620Z,8.37
2018-06-10T15:38:45.739Z,8.63
2018-06-10T15:41:14.424Z,8.47
2018-06-10T15:43:42.570Z,7.70
2018-06-10T15:46:10.653Z,9.07
2018-06-10T15:48:38.750Z,7.67
2018-06-10T15:51:06.675Z,8.30
2018-06-10T15:53:34.786Z,8.90
2018-06-10T15:56:02.896Z,8.17
2018-06-10T15:58:31.005Z,8.73
2018-06-10T16:00:59.125Z,8.70
2018-06-10T16:03:27.240Z,9.67
2018-06-10T16:05:55.410Z,8.93
2018-06-10T16:08:23.591Z,8.70
2018-06-10T16:10:51.755Z,9.03
2018-06-10T16:13:19.980Z,8.07
2018-06-10T16:15:48.130Z,8.37
2018-06-10T16:18:16.380Z,9.20
2018-06-10T16:20:44.569Z,8.60
2018-06-10T16:23:12.687Z,8.20
2018-06-10T16:25:40.829Z,8.60
2018-06-10T16:28:08.938Z,9.47
2018-06-10T16:30:37.878Z,8.10
2018-06-10T16:33:06.034Z,8.40
2018-06-10T16:35:34.140Z,8.30
2018-06-10T16:38:02.248Z,8.90
2018-06-10T16:40:30.339Z,8.43
2018-06-10T16:42:58.457Z,8.00
2018-06-10T16:45:26.548Z,8.17
2018-06-10T16:47:54.666Z,9.00
2018-06-10T16:50:22.761Z,8.17
2018-06-10T16:52:50.900Z,9.00
2018-06-10T16:55:18.879Z,8.20
2018-06-10T16:57:47.020Z,8.60
2018-06-10T17:00:15.233Z,7.83
2018-06-10T17:02:43.346Z,7.83
2018-06-10T17:05:11.592Z,8.77
2018-06-10T17:07:39.679Z,8.30
2018-06-10T17:10:07.869Z,8.60
2018-06-10T17:12:35.986Z,8.27
2018-06-10T17:15:04.148Z,9.10
2018-06-10T17:17:32.268Z,9.30
2018-06-10T17:20:00.364Z,8.60
2018-06-10T17:22:28.478Z,8.47
2018-06-10T17:24:56.579Z,8.80
2018-06-10T17:27:24.696Z,9.37
2018-06-10T17:29:52.795Z,9.17
2018-06-10T17:32:20.939Z,9.23
2018-06-10T17:34:49.473Z,9.57
2018-06-10T17:37:17.648Z,9.90
2018-06-10T17:39:45.819Z,9.40
2018-06-10T17:42:13.963Z,11.13
2018-06-10T17:44:42.071Z,11.10
2018-06-10T17:47:10.182Z,11.30
2018-06-10T17:49:38.289Z,11.83
2018-06-10T17:52:06.414Z,12.70
2018-06-10T17:54:34.547Z,12.73
2018-06-10T17:57:02.768Z,12.80
2018-06-10T17:59:30.915Z,14.13
2018-06-10T18:01:59.008Z,13.30
2018-06-10T18:04:27.279Z,13.50
2018-06-10T18:06:55.414Z,14.40
2018-06-10T18:09:23.520Z,13.47
2018-06-10T18:11:51.635Z,14.47
2018-06-10T18:14:19.820Z,14.20
2018-06-10T18:16:47.929Z,14.40
2018-06-10T18:19:16.044Z,15.43
2018-06-10T18:21:44.186Z,15.50
2018-06-10T18:24:12.351Z,16.53
2018-06-10T18:26:40.432Z,17.40
2018-06-10T18:29:08.409Z,19.53
2018-06-10T18:31:36.528Z,17.07
2018-06-10T18:34:04.857Z,18.03
2018-06-10T18:36:32.966Z,19.23
2018-06-10T18:39:01.108Z,18.90
2018-06-10T18:41:29.230Z,18.50
2018-06-10T18:43:57.335Z,16.20
2018-06-10T18:46:25.469Z,15.97
2018-06-10T18:48:53.608Z,16.60
2018-06-10T18:51:21.828Z,15.63
2018-06-10T18:53:50.594Z,17.17
2018-06-10T18:56:18.712Z,15.63
2018-06-10T18:58:46.831Z,17.30
2018-06-10T19:01:14.956Z,16.17
2018-06-10T19:03:43.096Z,16.23
2018-06-10T19:06:11.263Z,16.00
2018-06-10T19:08:39.383Z,15.83
2018-06-10T19:11:07.268Z,16.40
2018-06-10T19:13:35.384Z,16.23
2018-06-10T19:16:03.522Z,13.73
2018-06-10T19:18:31.470Z,14.10
2018-06-10T19:20:59.606Z,17.67
2018-06-10T19:23:27.752Z,15.47
2018-06-10T19:25:55.860Z,15.57
2018-06-10T19:28:23.980Z,16.60
2018-06-10T19:30:52.089Z,15.30
2018-06-10T19:33:20.202Z,15.47
2018-06-10T19:35:48.355Z,14.53
2018-06-10T19:38:16.477Z,14.77
2018-06-10T19:40:44.601Z,16.70
2018-06-10T19:43:12.749Z,16.57
2018-06-10T19:45:40.864Z,17.00
2018-06-10T19:48:08.988Z,18.40
2018-06-10T19:50:37.083Z,17.40
2018-06-10T19:53:05.696Z,18.07
2018-06-10T19:55:33.799Z,19.10
2018-06-10T19:58:01.958Z,18.90
2018-06-10T20:00:30.117Z,17.60
2018-06-10T20:02:58.220Z,17.90
2018-06-10T20:05:26.367Z,18.30
2018-06-10T20:07:54.476Z,18.33
2018-06-10T20:10:22.581Z,18.83
2018-06-10T20:12:50.798Z,19.27
2018-06-10T20:15:18.862Z,18.17
2018-06-10T20:17:46.981Z,21.90
2018-06-10T20:20:15.085Z,19.67
2018-06-10T20:22:43.188Z,19.97
2018-06-10T20:25:11.328Z,20.87
2018-06-10T20:27:39.428Z,20.77
2018-06-10T20:30:07.678Z,21.60
2018-06-10T20:32:35.727Z,20.60
2018-06-10T20:35:03.852Z,21.87
2018-06-10T20:37:32.024Z,18.90
2018-06-10T20:40:00.135Z,19.33
2018-06-10T20:42:28.269Z,19.73
2018-06-10T20:44:56.389Z,19.23
2018-06-10T20:47:24.492Z,19.50
2018-06-10T20:49:52.620Z,20.93
2018-06-10T20:52:20.737Z,21.03
2018-06-10T20:54:48.861Z,21.40
2018-06-10T20:57:17.003Z,20.37
2018-06-10T20:59:45.173Z,20.70
2018-06-10T21:02:13.288Z,20.50
2018-06-10T21:04:41.419Z,21.73
2018-06-10T21:07:09.523Z,22.27
2018-06-10T21:09:37.640Z,24.80
2018-06-10T21:12:05.740Z,20.13
2018-06-10T21:14:33.900Z,21.90
2018-06-10T21:17:02.086Z,20.10
2018-06-10T21:19:30.188Z,19.57
2018-06-10T21:21:58.351Z,20.27
2018-06-10T21:24:26.466Z,20.10
2018-06-10T21:26:54.564Z,21.30
2018-06-10T21:29:22.672Z,22.40
2018-06-10T21:31:50.775Z,24.87
2018-06-10T21:34:18.930Z,23.30
2018-06-10T21:36:47.046Z,22.73
2018-06-10T21:39:15.147Z,22.83
2018-06-10T21:41:43.246Z,22.23
2018-06-10T21:44:11.422Z,21.77
2018-06-10T21:46:39.536Z,23.40
2018-06-10T21:49:07.656Z,19.80
2018-06-10T21:51:35.791Z,19.87
2018-06-10T21:54:03.927Z,19.00
2018-06-10T21:56:32.041Z,20.27
2018-06-10T21:59:00.171Z,22.27
2018-06-10T22:01:28.316Z,24.70
2018-06-10T22:03:56.524Z,24.13
2018-06-10T22:06:24.636Z,24.37
2018-06-10T22:08:52.737Z,25.57
2018-06-10T22:11:20.853Z,24.53
2018-06-10T22:13:48.975Z,27.97
2018-06-10T22:16:17.096Z,25.60
2018-06-10T22:18:45.209Z,28.07
2018-06-10T22:21:13.328Z,26.27
2018-06-10T22:23:41.428Z,27.53
2018-06-10T22:26:09.543Z,27.93
2018-06-10T22:28:37.656Z,27.87
2018-06-10T22:31:05.791Z,28.30
2018-06-10T22:33:33.887Z,26.70
2018-06-10T22:36:02.000Z,24.80
2018-06-10T22:38:30.095Z,25.40
2018-06-10T22:40:58.207Z,26.67
2018-06-10T22:43:26.307Z,24.40
2018-06-10T22:45:54.427Z,22.60
2018-06-10T22:48:22.564Z,22.63
2018-06-10T22:50:50.748Z,23.00
2018-06-10T22:53:31.584Z,23.10
2018-06-10T22:55:59.710Z,22.63
2018-06-10T22:58:27.806Z,23.90
2018-06-10T23:00:55.916Z,22.23
2018-06-10T23:03:24.040Z,21.50
2018-06-10T23:05:52.155Z,20.83
2018-06-10T23:08:20.295Z,18.30
2018-06-10T23:10:48.428Z,19.80
2018-06-10T23:13:16.513Z,18.87
2018-06-10T23:15:44.637Z,18.80
2018-06-10T23:18:12.773Z,19.20
2018-06-10T23:20:40.879Z,18.37
2018-06-10T23:23:10.637Z,18.30
2018-06-10T23:25:38.813Z,19.10
2018-06-10T23:28:06.917Z,20.63
2018-06-10T23:30:35.035Z,22.87
2018-06-10T23:33:03.224Z,21.47
2018-06-10T23:35:31.335Z,21.73
2018-06-10T23:37:59.497Z,21.60
2018-06-10T23:40:27.609Z,20.70
2018-06-10T23:42:55.712Z,22.10
2018-06-10T23:45:23.841Z,22.00
2018-06-10T23:47:51.952Z,21.37
2018-06-10T23:50:20.047Z,23.27
2018-06-10T23:52:48.165Z,21.63
2018-06-10T23:55:16.255Z,23.13
2018-06-10T23:57:44.402Z,23.27
